This is the latest recevied weather packets stored in our database for station/object LRSV. If no packets are shown the sender has not sent any weather packets the latest 10 day(s).
| Time | Temp. | Humidity | Pressure | Rain* | Wind** | Luminosity | Snow |
|---|---|---|---|---|---|---|---|
| 1777966400 | 21.11° C | 46% | 1015 hPa | - | - | - | - |
| 1777965500 | 20° C | 53% | 1015 hPa | - | - | - | - |
| 1777964600 | 20° C | 53% | 1015 hPa | - | - | - | - |
| 1777963700 | 17.78° C | 56% | 1015 hPa | - | - | - | - |
| 1777962801 | 17.78° C | 56% | 1015 hPa | - | - | - | - |
| 1777961900 | 17.22° C | 56% | 1015 hPa | - | - | - | - |
| 1777961001 | 17.22° C | 56% | 1015 hPa | - | - | - | - |
| 1777960100 | 15° C | 59% | 1015 hPa | - | - | - | - |
| 1777959201 | 15° C | 59% | 1015 hPa | - | - | - | - |
| 1777958300 | 16.11° C | 52% | 1015 hPa | - | - | - | - |
| 1777957400 | 16.11° C | 52% | 1015 hPa | - | - | - | - |
| 1777956500 | 12.78° C | 59% | 1015 hPa | - | - | - | - |
| 1777955600 | 12.78° C | 59% | 1015 hPa | - | - | - | - |
| 1777954700 | 15° C | 51% | 1015 hPa | - | - | - | - |
| 1777943001 | 12.78° C | 51% | 1014 hPa | - | - | - | - |
| 1777942100 | 15° C | 45% | 1014 hPa | - | - | - | - |
| 1777941200 | 15° C | 45% | 1014 hPa | - | - | - | - |
| 1777940301 | 12.22° C | 58% | 1014 hPa | - | - | - | - |
| 1777933123 | 15° C | 48% | 1015 hPa | - | - | - | - |
| 1777931300 | 15° C | 48% | 1015 hPa | - | - | - | - |
| 1777930416 | 15° C | 48% | 1015 hPa | - | - | - | - |
| 1777929500 | 15° C | 48% | 1015 hPa | - | - | - | - |
| 1777928600 | 15° C | 48% | 1015 hPa | - | - | - | - |
| 1777925900 | 16.11° C | 45% | 1015 hPa | - | - | - | - |
| 1777925001 | 16.11° C | 45% | 1015 hPa | - | - | - | - |
* Rain since midnight (hover to see other rain measurements)
** Current wind speed in m/s (hover to see current wind gust speed)